sensor_id;sensor_type;location;lat;lon;timestamp;P1;durP1;ratioP1;P2;durP2;ratioP2
76021;SDS011;64718;52.124;6.226;2023-09-08T00:01:57;7.63;;;3.63;;
76021;SDS011;64718;52.124;6.226;2023-09-08T00:04:23;5.45;;;3.45;;
76021;SDS011;64718;52.124;6.226;2023-09-08T00:06:50;4.47;;;3.50;;
76021;SDS011;64718;52.124;6.226;2023-09-08T00:09:16;6.70;;;3.90;;
76021;SDS011;64718;52.124;6.226;2023-09-08T00:11:43;6.30;;;3.80;;
76021;SDS011;64718;52.124;6.226;2023-09-08T00:14:11;6.00;;;4.15;;
76021;SDS011;64718;52.124;6.226;2023-09-08T00:16:38;6.70;;;4.55;;
76021;SDS011;64718;52.124;6.226;2023-09-08T00:19:07;6.45;;;4.07;;
76021;SDS011;64718;52.124;6.226;2023-09-08T00:21:35;6.85;;;4.22;;
76021;SDS011;64718;52.124;6.226;2023-09-08T00:24:02;5.97;;;4.03;;
76021;SDS011;64718;52.124;6.226;2023-09-08T00:26:30;5.20;;;4.00;;
76021;SDS011;64718;52.124;6.226;2023-09-08T00:28:56;4.82;;;3.90;;
76021;SDS011;64718;52.124;6.226;2023-09-08T00:31:24;6.43;;;4.47;;
76021;SDS011;64718;52.124;6.226;2023-09-08T00:33:51;7.72;;;4.35;;
76021;SDS011;64718;52.124;6.226;2023-09-08T00:36:17;7.05;;;4.55;;
76021;SDS011;64718;52.124;6.226;2023-09-08T00:38:44;5.95;;;4.25;;
76021;SDS011;64718;52.124;6.226;2023-09-08T00:41:10;5.05;;;4.00;;
76021;SDS011;64718;52.124;6.226;2023-09-08T00:43:37;7.05;;;4.47;;
76021;SDS011;64718;52.124;6.226;2023-09-08T00:46:03;6.88;;;4.60;;
76021;SDS011;64718;52.124;6.226;2023-09-08T00:48:31;5.30;;;4.13;;
76021;SDS011;64718;52.124;6.226;2023-09-08T00:50:59;6.40;;;4.20;;
76021;SDS011;64718;52.124;6.226;2023-09-08T00:53:26;6.82;;;4.07;;
76021;SDS011;64718;52.124;6.226;2023-09-08T00:55:53;6.85;;;4.40;;
76021;SDS011;64718;52.124;6.226;2023-09-08T00:58:20;7.57;;;4.57;;
76021;SDS011;64718;52.124;6.226;2023-09-08T01:00:47;8.55;;;4.70;;
76021;SDS011;64718;52.124;6.226;2023-09-08T01:03:14;7.68;;;5.25;;
76021;SDS011;64718;52.124;6.226;2023-09-08T01:05:42;7.28;;;5.15;;
76021;SDS011;64718;52.124;6.226;2023-09-08T01:08:11;8.80;;;4.03;;
76021;SDS011;64718;52.124;6.226;2023-09-08T01:10:40;7.68;;;4.70;;
76021;SDS011;64718;52.124;6.226;2023-09-08T01:13:07;6.78;;;4.65;;
76021;SDS011;64718;52.124;6.226;2023-09-08T01:15:34;7.18;;;4.43;;
76021;SDS011;64718;52.124;6.226;2023-09-08T01:18:00;6.97;;;4.80;;
76021;SDS011;64718;52.124;6.226;2023-09-08T01:20:27;7.85;;;5.35;;
76021;SDS011;64718;52.124;6.226;2023-09-08T01:23:03;10.20;;;5.15;;
76021;SDS011;64718;52.124;6.226;2023-09-08T01:25:45;6.78;;;6.07;;
76021;SDS011;64718;52.124;6.226;2023-09-08T01:28:14;7.57;;;4.75;;
76021;SDS011;64718;52.124;6.226;2023-09-08T01:30:42;9.95;;;5.13;;
76021;SDS011;64718;52.124;6.226;2023-09-08T01:33:09;7.20;;;4.90;;
76021;SDS011;64718;52.124;6.226;2023-09-08T01:35:36;6.90;;;4.78;;
76021;SDS011;64718;52.124;6.226;2023-09-08T01:38:03;9.98;;;5.22;;
76021;SDS011;64718;52.124;6.226;2023-09-08T01:40:30;8.48;;;5.50;;
76021;SDS011;64718;52.124;6.226;2023-09-08T01:42:57;6.38;;;4.72;;
76021;SDS011;64718;52.124;6.226;2023-09-08T01:45:24;9.15;;;5.13;;
76021;SDS011;64718;52.124;6.226;2023-09-08T01:47:51;7.78;;;4.63;;
76021;SDS011;64718;52.124;6.226;2023-09-08T01:50:17;6.75;;;4.72;;
76021;SDS011;64718;52.124;6.226;2023-09-08T01:52:46;10.05;;;6.32;;
76021;SDS011;64718;52.124;6.226;2023-09-08T01:55:13;10.48;;;5.57;;
76021;SDS011;64718;52.124;6.226;2023-09-08T01:57:41;5.80;;;4.22;;
76021;SDS011;64718;52.124;6.226;2023-09-08T02:00:10;7.57;;;5.13;;
76021;SDS011;64718;52.124;6.226;2023-09-08T02:02:37;6.32;;;4.70;;
76021;SDS011;64718;52.124;6.226;2023-09-08T02:05:04;8.13;;;5.47;;
76021;SDS011;64718;52.124;6.226;2023-09-08T02:07:31;8.18;;;5.05;;
76021;SDS011;64718;52.124;6.226;2023-09-08T02:09:57;9.95;;;5.93;;
76021;SDS011;64718;52.124;6.226;2023-09-08T02:12:24;7.18;;;5.45;;
76021;SDS011;64718;52.124;6.226;2023-09-08T02:14:51;8.93;;;5.65;;
76021;SDS011;64718;52.124;6.226;2023-09-08T02:17:19;9.02;;;5.68;;
76021;SDS011;64718;52.124;6.226;2023-09-08T02:19:45;8.30;;;5.93;;
76021;SDS011;64718;52.124;6.226;2023-09-08T02:22:12;7.30;;;4.95;;
76021;SDS011;64718;52.124;6.226;2023-09-08T02:24:38;7.63;;;5.03;;
76021;SDS011;64718;52.124;6.226;2023-09-08T02:27:05;8.68;;;5.28;;
76021;SDS011;64718;52.124;6.226;2023-09-08T02:29:32;9.13;;;5.90;;
76021;SDS011;64718;52.124;6.226;2023-09-08T02:31:58;8.50;;;6.22;;
76021;SDS011;64718;52.124;6.226;2023-09-08T02:34:26;7.93;;;5.85;;
76021;SDS011;64718;52.124;6.226;2023-09-08T02:36:53;7.93;;;5.35;;
76021;SDS011;64718;52.124;6.226;2023-09-08T02:39:19;10.02;;;5.72;;
76021;SDS011;64718;52.124;6.226;2023-09-08T02:41:48;7.82;;;5.50;;
76021;SDS011;64718;52.124;6.226;2023-09-08T02:44:14;8.20;;;5.03;;
76021;SDS011;64718;52.124;6.226;2023-09-08T02:46:41;7.68;;;5.63;;
76021;SDS011;64718;52.124;6.226;2023-09-08T02:49:07;7.53;;;5.15;;
76021;SDS011;64718;52.124;6.226;2023-09-08T02:51:35;8.57;;;5.32;;
76021;SDS011;64718;52.124;6.226;2023-09-08T02:54:02;8.43;;;5.55;;
76021;SDS011;64718;52.124;6.226;2023-09-08T02:56:29;8.02;;;5.22;;
76021;SDS011;64718;52.124;6.226;2023-09-08T02:58:55;6.95;;;5.30;;
76021;SDS011;64718;52.124;6.226;2023-09-08T03:01:22;6.80;;;4.78;;
76021;SDS011;64718;52.124;6.226;2023-09-08T03:03:48;7.72;;;5.45;;
76021;SDS011;64718;52.124;6.226;2023-09-08T03:06:18;8.25;;;5.53;;
76021;SDS011;64718;52.124;6.226;2023-09-08T03:08:46;9.63;;;5.30;;
76021;SDS011;64718;52.124;6.226;2023-09-08T03:11:13;8.32;;;5.68;;
76021;SDS011;64718;52.124;6.226;2023-09-08T03:13:39;6.85;;;4.93;;
76021;SDS011;64718;52.124;6.226;2023-09-08T03:16:07;8.20;;;5.30;;
76021;SDS011;64718;52.124;6.226;2023-09-08T03:18:34;7.93;;;5.70;;
76021;SDS011;64718;52.124;6.226;2023-09-08T03:21:01;10.75;;;6.10;;
76021;SDS011;64718;52.124;6.226;2023-09-08T03:23:34;7.38;;;4.93;;
76021;SDS011;64718;52.124;6.226;2023-09-08T03:26:02;9.73;;;6.15;;
76021;SDS011;64718;52.124;6.226;2023-09-08T03:28:28;9.60;;;6.43;;
76021;SDS011;64718;52.124;6.226;2023-09-08T03:30:55;8.93;;;5.78;;
76021;SDS011;64718;52.124;6.226;2023-09-08T03:33:22;9.35;;;5.70;;
76021;SDS011;64718;52.124;6.226;2023-09-08T03:35:48;9.30;;;5.07;;
76021;SDS011;64718;52.124;6.226;2023-09-08T03:38:15;8.90;;;5.80;;
76021;SDS011;64718;52.124;6.226;2023-09-08T03:40:41;8.38;;;5.60;;
76021;SDS011;64718;52.124;6.226;2023-09-08T03:43:10;7.45;;;5.20;;
76021;SDS011;64718;52.124;6.226;2023-09-08T03:45:36;10.35;;;6.28;;
76021;SDS011;64718;52.124;6.226;2023-09-08T03:48:03;8.98;;;5.15;;
76021;SDS011;64718;52.124;6.226;2023-09-08T03:50:30;8.70;;;5.43;;
76021;SDS011;64718;52.124;6.226;2023-09-08T03:52:56;10.93;;;6.63;;
76021;SDS011;64718;52.124;6.226;2023-09-08T03:55:23;8.90;;;5.63;;
76021;SDS011;64718;52.124;6.226;2023-09-08T03:57:50;9.98;;;6.68;;
76021;SDS011;64718;52.124;6.226;2023-09-08T04:00:18;11.18;;;6.93;;
76021;SDS011;64718;52.124;6.226;2023-09-08T04:02:47;10.35;;;6.53;;
76021;SDS011;64718;52.124;6.226;2023-09-08T04:05:14;11.07;;;6.72;;
76021;SDS011;64718;52.124;6.226;2023-09-08T04:07:41;11.60;;;7.35;;
76021;SDS011;64718;52.124;6.226;2023-09-08T04:10:09;12.13;;;7.05;;
76021;SDS011;64718;52.124;6.226;2023-09-08T04:12:35;12.57;;;7.85;;
76021;SDS011;64718;52.124;6.226;2023-09-08T04:15:02;13.25;;;7.82;;
76021;SDS011;64718;52.124;6.226;2023-09-08T04:17:30;15.90;;;8.32;;
76021;SDS011;64718;52.124;6.226;2023-09-08T04:19:57;12.55;;;7.57;;
76021;SDS011;64718;52.124;6.226;2023-09-08T04:22:24;11.65;;;7.45;;
76021;SDS011;64718;52.124;6.226;2023-09-08T04:24:51;10.80;;;7.43;;
76021;SDS011;64718;52.124;6.226;2023-09-08T04:27:18;12.60;;;8.05;;
76021;SDS011;64718;52.124;6.226;2023-09-08T04:29:45;12.55;;;7.78;;
76021;SDS011;64718;52.124;6.226;2023-09-08T04:32:11;11.60;;;7.20;;
76021;SDS011;64718;52.124;6.226;2023-09-08T04:34:40;12.18;;;7.72;;
76021;SDS011;64718;52.124;6.226;2023-09-08T04:37:07;13.75;;;7.40;;
76021;SDS011;64718;52.124;6.226;2023-09-08T04:39:34;11.98;;;7.28;;
76021;SDS011;64718;52.124;6.226;2023-09-08T04:42:02;13.23;;;8.38;;
76021;SDS011;64718;52.124;6.226;2023-09-08T04:44:29;11.32;;;7.72;;
76021;SDS011;64718;52.124;6.226;2023-09-08T04:46:56;14.05;;;8.40;;
76021;SDS011;64718;52.124;6.226;2023-09-08T04:49:22;14.40;;;8.35;;
76021;SDS011;64718;52.124;6.226;2023-09-08T04:51:50;11.68;;;7.47;;
76021;SDS011;64718;52.124;6.226;2023-09-08T04:54:17;12.15;;;8.02;;
76021;SDS011;64718;52.124;6.226;2023-09-08T04:56:45;13.48;;;8.60;;
76021;SDS011;64718;52.124;6.226;2023-09-08T04:59:11;13.18;;;8.50;;
76021;SDS011;64718;52.124;6.226;2023-09-08T05:01:38;13.70;;;8.40;;
76021;SDS011;64718;52.124;6.226;2023-09-08T05:04:05;14.57;;;8.27;;
76021;SDS011;64718;52.124;6.226;2023-09-08T05:06:31;14.55;;;8.15;;
76021;SDS011;64718;52.124;6.226;2023-09-08T05:08:59;14.88;;;8.40;;
76021;SDS011;64718;52.124;6.226;2023-09-08T05:11:26;13.57;;;8.30;;
76021;SDS011;64718;52.124;6.226;2023-09-08T05:13:53;13.35;;;8.35;;
76021;SDS011;64718;52.124;6.226;2023-09-08T05:16:19;14.45;;;8.73;;
76021;SDS011;64718;52.124;6.226;2023-09-08T05:19:01;11.65;;;7.95;;
76021;SDS011;64718;52.124;6.226;2023-09-08T05:21:27;12.02;;;8.45;;
76021;SDS011;64718;52.124;6.226;2023-09-08T05:23:54;13.48;;;8.90;;
76021;SDS011;64718;52.124;6.226;2023-09-08T05:26:22;13.95;;;8.63;;
76021;SDS011;64718;52.124;6.226;2023-09-08T05:28:49;15.95;;;9.55;;
76021;SDS011;64718;52.124;6.226;2023-09-08T05:31:15;15.13;;;8.90;;
76021;SDS011;64718;52.124;6.226;2023-09-08T05:33:42;16.13;;;10.50;;
76021;SDS011;64718;52.124;6.226;2023-09-08T05:36:08;16.83;;;10.35;;
76021;SDS011;64718;52.124;6.226;2023-09-08T05:38:35;17.05;;;10.85;;
76021;SDS011;64718;52.124;6.226;2023-09-08T05:41:01;17.20;;;10.15;;
76021;SDS011;64718;52.124;6.226;2023-09-08T05:43:29;19.10;;;10.48;;
76021;SDS011;64718;52.124;6.226;2023-09-08T05:45:56;18.30;;;11.13;;
76021;SDS011;64718;52.124;6.226;2023-09-08T05:48:22;15.60;;;10.90;;
76021;SDS011;64718;52.124;6.226;2023-09-08T05:50:49;17.88;;;10.43;;
76021;SDS011;64718;52.124;6.226;2023-09-08T05:53:16;16.00;;;9.77;;
76021;SDS011;64718;52.124;6.226;2023-09-08T05:55:42;14.30;;;9.27;;
76021;SDS011;64718;52.124;6.226;2023-09-08T05:58:09;14.00;;;8.75;;
76021;SDS011;64718;52.124;6.226;2023-09-08T06:00:37;13.73;;;9.15;;
76021;SDS011;64718;52.124;6.226;2023-09-08T06:03:04;10.20;;;6.82;;
76021;SDS011;64718;52.124;6.226;2023-09-08T06:05:31;11.38;;;7.70;;
76021;SDS011;64718;52.124;6.226;2023-09-08T06:07:57;8.73;;;6.53;;
76021;SDS011;64718;52.124;6.226;2023-09-08T06:10:24;9.43;;;6.55;;
76021;SDS011;64718;52.124;6.226;2023-09-08T06:12:50;8.85;;;7.03;;
76021;SDS011;64718;52.124;6.226;2023-09-08T06:15:17;9.77;;;6.75;;
76021;SDS011;64718;52.124;6.226;2023-09-08T06:17:45;11.35;;;7.15;;
76021;SDS011;64718;52.124;6.226;2023-09-08T06:20:13;9.82;;;5.90;;
76021;SDS011;64718;52.124;6.226;2023-09-08T06:22:41;8.07;;;5.57;;
76021;SDS011;64718;52.124;6.226;2023-09-08T06:25:07;8.88;;;6.78;;
76021;SDS011;64718;52.124;6.226;2023-09-08T06:27:34;10.93;;;6.60;;
76021;SDS011;64718;52.124;6.226;2023-09-08T06:30:01;8.77;;;6.35;;
76021;SDS011;64718;52.124;6.226;2023-09-08T06:32:28;8.45;;;6.25;;
76021;SDS011;64718;52.124;6.226;2023-09-08T06:34:56;7.55;;;5.75;;
76021;SDS011;64718;52.124;6.226;2023-09-08T06:37:22;7.70;;;6.28;;
76021;SDS011;64718;52.124;6.226;2023-09-08T06:39:49;8.88;;;5.95;;
76021;SDS011;64718;52.124;6.226;2023-09-08T06:42:15;7.85;;;6.20;;
76021;SDS011;64718;52.124;6.226;2023-09-08T06:44:42;7.28;;;6.35;;
76021;SDS011;64718;52.124;6.226;2023-09-08T06:47:09;9.43;;;6.55;;
76021;SDS011;64718;52.124;6.226;2023-09-08T06:49:35;7.60;;;5.30;;
76021;SDS011;64718;52.124;6.226;2023-09-08T06:52:03;10.02;;;5.45;;
76021;SDS011;64718;52.124;6.226;2023-09-08T06:54:30;6.88;;;6.10;;
76021;SDS011;64718;52.124;6.226;2023-09-08T06:56:57;10.10;;;6.45;;
76021;SDS011;64718;52.124;6.226;2023-09-08T06:59:24;7.05;;;5.38;;
76021;SDS011;64718;52.124;6.226;2023-09-08T07:01:50;8.50;;;6.10;;
76021;SDS011;64718;52.124;6.226;2023-09-08T07:04:17;7.68;;;5.68;;
76021;SDS011;64718;52.124;6.226;2023-09-08T07:06:43;7.00;;;5.25;;
76021;SDS011;64718;52.124;6.226;2023-09-08T07:09:12;8.80;;;5.68;;
76021;SDS011;64718;52.124;6.226;2023-09-08T07:14:05;5.53;;;4.90;;
76021;SDS011;64718;52.124;6.226;2023-09-08T07:16:32;7.50;;;5.50;;
76021;SDS011;64718;52.124;6.226;2023-09-08T07:18:58;6.82;;;5.63;;
76021;SDS011;64718;52.124;6.226;2023-09-08T07:21:26;7.18;;;5.15;;
76021;SDS011;64718;52.124;6.226;2023-09-08T07:23:53;6.85;;;5.57;;
76021;SDS011;64718;52.124;6.226;2023-09-08T07:26:21;8.38;;;5.55;;
76021;SDS011;64718;52.124;6.226;2023-09-08T07:31:14;8.35;;;5.22;;
76021;SDS011;64718;52.124;6.226;2023-09-08T07:33:42;8.88;;;5.82;;
76021;SDS011;64718;52.124;6.226;2023-09-08T07:36:10;6.63;;;5.28;;
76021;SDS011;64718;52.124;6.226;2023-09-08T07:41:03;6.70;;;5.07;;
76021;SDS011;64718;52.124;6.226;2023-09-08T07:43:31;8.85;;;5.55;;
76021;SDS011;64718;52.124;6.226;2023-09-08T07:48:24;7.93;;;5.80;;
76021;SDS011;64718;52.124;6.226;2023-09-08T07:50:50;7.15;;;5.65;;
76021;SDS011;64718;52.124;6.226;2023-09-08T07:53:17;7.70;;;5.50;;
76021;SDS011;64718;52.124;6.226;2023-09-08T07:55:43;8.25;;;5.32;;
76021;SDS011;64718;52.124;6.226;2023-09-08T07:58:10;6.55;;;5.07;;
76021;SDS011;64718;52.124;6.226;2023-09-08T08:00:38;6.38;;;5.63;;
76021;SDS011;64718;52.124;6.226;2023-09-08T08:05:31;7.95;;;5.60;;
76021;SDS011;64718;52.124;6.226;2023-09-08T08:07:57;5.88;;;5.28;;
76021;SDS011;64718;52.124;6.226;2023-09-08T08:10:24;7.13;;;5.93;;
76021;SDS011;64718;52.124;6.226;2023-09-08T08:12:51;7.70;;;5.55;;
76021;SDS011;64718;52.124;6.226;2023-09-08T08:15:18;7.05;;;5.10;;
76021;SDS011;64718;52.124;6.226;2023-09-08T08:17:47;8.60;;;5.63;;
76021;SDS011;64718;52.124;6.226;2023-09-08T08:20:14;7.38;;;5.35;;
76021;SDS011;64718;52.124;6.226;2023-09-08T08:22:43;8.27;;;5.68;;
76021;SDS011;64718;52.124;6.226;2023-09-08T08:25:10;6.15;;;5.47;;
76021;SDS011;64718;52.124;6.226;2023-09-08T08:27:37;7.70;;;5.45;;
76021;SDS011;64718;52.124;6.226;2023-09-08T08:30:06;5.07;;;4.57;;
76021;SDS011;64718;52.124;6.226;2023-09-08T08:32:33;6.72;;;5.03;;
76021;SDS011;64718;52.124;6.226;2023-09-08T08:35:01;7.68;;;4.93;;
76021;SDS011;64718;52.124;6.226;2023-09-08T08:37:29;6.15;;;4.85;;
76021;SDS011;64718;52.124;6.226;2023-09-08T08:39:56;7.53;;;5.07;;
76021;SDS011;64718;52.124;6.226;2023-09-08T08:42:22;7.07;;;5.60;;
76021;SDS011;64718;52.124;6.226;2023-09-08T08:44:49;6.93;;;5.65;;
76021;SDS011;64718;52.124;6.226;2023-09-08T08:47:16;7.63;;;4.53;;
76021;SDS011;64718;52.124;6.226;2023-09-08T08:49:45;7.95;;;5.57;;
76021;SDS011;64718;52.124;6.226;2023-09-08T08:52:14;8.20;;;5.00;;
76021;SDS011;64718;52.124;6.226;2023-09-08T08:54:42;9.15;;;5.43;;
76021;SDS011;64718;52.124;6.226;2023-09-08T08:57:10;6.35;;;4.28;;
76021;SDS011;64718;52.124;6.226;2023-09-08T08:59:37;7.18;;;4.78;;
76021;SDS011;64718;52.124;6.226;2023-09-08T09:02:06;6.60;;;4.82;;
76021;SDS011;64718;52.124;6.226;2023-09-08T09:04:35;6.68;;;4.60;;
76021;SDS011;64718;52.124;6.226;2023-09-08T09:07:03;5.35;;;4.30;;
76021;SDS011;64718;52.124;6.226;2023-09-08T09:09:31;6.13;;;4.82;;
76021;SDS011;64718;52.124;6.226;2023-09-08T09:11:58;6.40;;;4.28;;
76021;SDS011;64718;52.124;6.226;2023-09-08T09:14:24;7.63;;;4.68;;
76021;SDS011;64718;52.124;6.226;2023-09-08T09:16:51;5.72;;;4.50;;
76021;SDS011;64718;52.124;6.226;2023-09-08T09:19:22;6.90;;;4.60;;
76021;SDS011;64718;52.124;6.226;2023-09-08T09:21:52;7.70;;;5.05;;
76021;SDS011;64718;52.124;6.226;2023-09-08T09:24:28;8.48;;;5.28;;
76021;SDS011;64718;52.124;6.226;2023-09-08T09:26:57;8.88;;;5.43;;
76021;SDS011;64718;52.124;6.226;2023-09-08T09:31:50;6.85;;;4.80;;
76021;SDS011;64718;52.124;6.226;2023-09-08T09:34:18;6.97;;;4.70;;
76021;SDS011;64718;52.124;6.226;2023-09-08T09:36:47;6.63;;;5.03;;
76021;SDS011;64718;52.124;6.226;2023-09-08T09:39:16;7.95;;;5.43;;
76021;SDS011;64718;52.124;6.226;2023-09-08T09:41:43;6.63;;;4.75;;
76021;SDS011;64718;52.124;6.226;2023-09-08T09:44:12;7.25;;;4.97;;
76021;SDS011;64718;52.124;6.226;2023-09-08T09:46:38;6.80;;;4.95;;
76021;SDS011;64718;52.124;6.226;2023-09-08T09:49:10;6.18;;;4.30;;
76021;SDS011;64718;52.124;6.226;2023-09-08T09:51:39;6.07;;;4.65;;
76021;SDS011;64718;52.124;6.226;2023-09-08T09:54:06;7.70;;;4.97;;
76021;SDS011;64718;52.124;6.226;2023-09-08T09:56:33;7.97;;;5.43;;
76021;SDS011;64718;52.124;6.226;2023-09-08T09:59:03;9.45;;;5.00;;
76021;SDS011;64718;52.124;6.226;2023-09-08T10:01:32;7.03;;;4.80;;
76021;SDS011;64718;52.124;6.226;2023-09-08T10:03:58;6.85;;;5.10;;
76021;SDS011;64718;52.124;6.226;2023-09-08T10:06:26;6.55;;;4.93;;
76021;SDS011;64718;52.124;6.226;2023-09-08T10:08:53;9.27;;;5.57;;
76021;SDS011;64718;52.124;6.226;2023-09-08T10:11:21;7.07;;;4.63;;
76021;SDS011;64718;52.124;6.226;2023-09-08T10:13:50;7.03;;;4.65;;
76021;SDS011;64718;52.124;6.226;2023-09-08T10:16:24;7.00;;;4.82;;
76021;SDS011;64718;52.124;6.226;2023-09-08T10:18:55;9.60;;;4.30;;
76021;SDS011;64718;52.124;6.226;2023-09-08T10:21:25;9.43;;;5.03;;
76021;SDS011;64718;52.124;6.226;2023-09-08T10:23:54;7.35;;;4.47;;
76021;SDS011;64718;52.124;6.226;2023-09-08T10:26:28;8.32;;;5.65;;
76021;SDS011;64718;52.124;6.226;2023-09-08T10:28:58;6.55;;;4.80;;
76021;SDS011;64718;52.124;6.226;2023-09-08T10:31:25;9.93;;;5.18;;
76021;SDS011;64718;52.124;6.226;2023-09-08T10:33:55;7.22;;;4.78;;
76021;SDS011;64718;52.124;6.226;2023-09-08T10:36:22;5.68;;;4.40;;
76021;SDS011;64718;52.124;6.226;2023-09-08T10:38:49;6.03;;;4.30;;
76021;SDS011;64718;52.124;6.226;2023-09-08T10:41:26;5.50;;;4.47;;
76021;SDS011;64718;52.124;6.226;2023-09-08T10:43:57;6.20;;;4.40;;
76021;SDS011;64718;52.124;6.226;2023-09-08T10:46:28;6.28;;;4.10;;
76021;SDS011;64718;52.124;6.226;2023-09-08T10:49:01;7.55;;;4.38;;
76021;SDS011;64718;52.124;6.226;2023-09-08T10:51:29;5.40;;;4.28;;
76021;SDS011;64718;52.124;6.226;2023-09-08T10:53:56;6.20;;;4.43;;
76021;SDS011;64718;52.124;6.226;2023-09-08T10:56:26;6.47;;;4.88;;
76021;SDS011;64718;52.124;6.226;2023-09-08T10:58:53;6.72;;;4.10;;
76021;SDS011;64718;52.124;6.226;2023-09-08T11:01:20;6.30;;;4.30;;
76021;SDS011;64718;52.124;6.226;2023-09-08T11:03:51;6.38;;;4.03;;
76021;SDS011;64718;52.124;6.226;2023-09-08T11:06:20;5.70;;;4.65;;
76021;SDS011;64718;52.124;6.226;2023-09-08T11:08:48;8.05;;;4.47;;
76021;SDS011;64718;52.124;6.226;2023-09-08T11:11:18;4.75;;;4.25;;
76021;SDS011;64718;52.124;6.226;2023-09-08T11:13:45;6.75;;;4.28;;
76021;SDS011;64718;52.124;6.226;2023-09-08T11:16:12;4.82;;;4.07;;
76021;SDS011;64718;52.124;6.226;2023-09-08T11:18:40;7.57;;;5.00;;
76021;SDS011;64718;52.124;6.226;2023-09-08T11:21:08;5.63;;;4.13;;
76021;SDS011;64718;52.124;6.226;2023-09-08T11:23:37;5.53;;;4.20;;
76021;SDS011;64718;52.124;6.226;2023-09-08T11:26:04;6.40;;;4.07;;
76021;SDS011;64718;52.124;6.226;2023-09-08T11:28:33;7.03;;;4.00;;
76021;SDS011;64718;52.124;6.226;2023-09-08T11:31:00;5.35;;;3.80;;
76021;SDS011;64718;52.124;6.226;2023-09-08T11:33:32;6.50;;;4.40;;
76021;SDS011;64718;52.124;6.226;2023-09-08T11:36:00;8.20;;;4.63;;
76021;SDS011;64718;52.124;6.226;2023-09-08T11:38:27;4.82;;;3.60;;
76021;SDS011;64718;52.124;6.226;2023-09-08T11:40:57;4.53;;;3.83;;
76021;SDS011;64718;52.124;6.226;2023-09-08T11:43:24;4.13;;;3.63;;
76021;SDS011;64718;52.124;6.226;2023-09-08T11:45:52;5.80;;;3.95;;
76021;SDS011;64718;52.124;6.226;2023-09-08T11:48:19;4.95;;;4.13;;
76021;SDS011;64718;52.124;6.226;2023-09-08T11:50:45;6.78;;;4.43;;
76021;SDS011;64718;52.124;6.226;2023-09-08T11:53:12;5.22;;;4.22;;
76021;SDS011;64718;52.124;6.226;2023-09-08T11:55:39;8.15;;;3.53;;
76021;SDS011;64718;52.124;6.226;2023-09-08T11:58:07;5.25;;;3.75;;
76021;SDS011;64718;52.124;6.226;2023-09-08T12:00:34;5.97;;;4.00;;
76021;SDS011;64718;52.124;6.226;2023-09-08T12:03:09;5.15;;;4.15;;
76021;SDS011;64718;52.124;6.226;2023-09-08T12:05:37;5.75;;;3.85;;
76021;SDS011;64718;52.124;6.226;2023-09-08T12:08:04;4.55;;;3.67;;
76021;SDS011;64718;52.124;6.226;2023-09-08T12:10:37;4.55;;;4.00;;
76021;SDS011;64718;52.124;6.226;2023-09-08T12:13:04;6.63;;;4.10;;
76021;SDS011;64718;52.124;6.226;2023-09-08T12:15:32;7.40;;;4.10;;
76021;SDS011;64718;52.124;6.226;2023-09-08T12:18:00;4.95;;;4.20;;
76021;SDS011;64718;52.124;6.226;2023-09-08T12:20:28;4.68;;;4.00;;
76021;SDS011;64718;52.124;6.226;2023-09-08T12:22:56;5.35;;;3.70;;
76021;SDS011;64718;52.124;6.226;2023-09-08T12:25:24;6.13;;;4.40;;
76021;SDS011;64718;52.124;6.226;2023-09-08T12:27:53;7.70;;;4.45;;
76021;SDS011;64718;52.124;6.226;2023-09-08T12:30:21;4.50;;;3.83;;
76021;SDS011;64718;52.124;6.226;2023-09-08T12:32:56;4.70;;;3.72;;
76021;SDS011;64718;52.124;6.226;2023-09-08T12:35:24;5.18;;;4.03;;
76021;SDS011;64718;52.124;6.226;2023-09-08T12:40:19;6.00;;;3.83;;
76021;SDS011;64718;52.124;6.226;2023-09-08T12:42:46;6.72;;;4.78;;
76021;SDS011;64718;52.124;6.226;2023-09-08T12:45:12;7.10;;;4.68;;
76021;SDS011;64718;52.124;6.226;2023-09-08T12:47:39;5.57;;;3.40;;
76021;SDS011;64718;52.124;6.226;2023-09-08T12:50:07;6.85;;;4.38;;
76021;SDS011;64718;52.124;6.226;2023-09-08T12:52:34;6.45;;;4.32;;
76021;SDS011;64718;52.124;6.226;2023-09-08T12:55:01;9.95;;;4.15;;
76021;SDS011;64718;52.124;6.226;2023-09-08T12:57:28;5.95;;;4.20;;
76021;SDS011;64718;52.124;6.226;2023-09-08T12:59:55;4.82;;;3.70;;
76021;SDS011;64718;52.124;6.226;2023-09-08T13:02:22;5.30;;;4.32;;
76021;SDS011;64718;52.124;6.226;2023-09-08T13:04:49;5.43;;;4.43;;
76021;SDS011;64718;52.124;6.226;2023-09-08T13:07:17;5.95;;;4.60;;
76021;SDS011;64718;52.124;6.226;2023-09-08T13:09:44;6.00;;;4.20;;
76021;SDS011;64718;52.124;6.226;2023-09-08T13:12:11;5.07;;;3.65;;
76021;SDS011;64718;52.124;6.226;2023-09-08T13:14:38;4.72;;;4.25;;
76021;SDS011;64718;52.124;6.226;2023-09-08T13:17:05;5.63;;;4.78;;
76021;SDS011;64718;52.124;6.226;2023-09-08T13:19:32;5.18;;;4.15;;
76021;SDS011;64718;52.124;6.226;2023-09-08T13:21:58;8.27;;;3.95;;
76021;SDS011;64718;52.124;6.226;2023-09-08T13:24:26;3.72;;;3.40;;
76021;SDS011;64718;52.124;6.226;2023-09-08T13:26:53;5.85;;;3.92;;
76021;SDS011;64718;52.124;6.226;2023-09-08T13:29:19;4.72;;;4.18;;
76021;SDS011;64718;52.124;6.226;2023-09-08T13:31:46;4.38;;;3.67;;
76021;SDS011;64718;52.124;6.226;2023-09-08T13:34:13;4.75;;;4.00;;
76021;SDS011;64718;52.124;6.226;2023-09-08T13:36:39;6.47;;;4.07;;
76021;SDS011;64718;52.124;6.226;2023-09-08T13:39:06;4.07;;;3.53;;
76021;SDS011;64718;52.124;6.226;2023-09-08T13:44:19;4.28;;;3.88;;
76021;SDS011;64718;52.124;6.226;2023-09-08T13:46:46;7.63;;;4.18;;
76021;SDS011;64718;52.124;6.226;2023-09-08T13:49:14;4.90;;;4.38;;
76021;SDS011;64718;52.124;6.226;2023-09-08T13:51:40;4.47;;;3.97;;
76021;SDS011;64718;52.124;6.226;2023-09-08T13:54:07;4.60;;;4.13;;
76021;SDS011;64718;52.124;6.226;2023-09-08T13:56:34;5.65;;;4.55;;
76021;SDS011;64718;52.124;6.226;2023-09-08T13:59:02;5.78;;;4.32;;
76021;SDS011;64718;52.124;6.226;2023-09-08T14:01:29;4.10;;;3.70;;
76021;SDS011;64718;52.124;6.226;2023-09-08T14:03:56;6.45;;;4.22;;
76021;SDS011;64718;52.124;6.226;2023-09-08T14:06:25;5.32;;;4.47;;
76021;SDS011;64718;52.124;6.226;2023-09-08T14:08:52;5.53;;;4.25;;
76021;SDS011;64718;52.124;6.226;2023-09-08T14:11:19;6.82;;;4.88;;
76021;SDS011;64718;52.124;6.226;2023-09-08T14:13:47;5.22;;;3.67;;
76021;SDS011;64718;52.124;6.226;2023-09-08T14:16:17;5.68;;;3.70;;
76021;SDS011;64718;52.124;6.226;2023-09-08T14:18:44;4.47;;;4.07;;
76021;SDS011;64718;52.124;6.226;2023-09-08T14:21:10;4.90;;;3.95;;
76021;SDS011;64718;52.124;6.226;2023-09-08T14:23:37;6.28;;;3.97;;
76021;SDS011;64718;52.124;6.226;2023-09-08T14:28:31;5.10;;;4.60;;
76021;SDS011;64718;52.124;6.226;2023-09-08T14:30:58;5.00;;;4.05;;
76021;SDS011;64718;52.124;6.226;2023-09-08T14:33:27;5.38;;;4.07;;
76021;SDS011;64718;52.124;6.226;2023-09-08T14:35:53;5.20;;;4.13;;
76021;SDS011;64718;52.124;6.226;2023-09-08T14:38:21;4.28;;;3.88;;
76021;SDS011;64718;52.124;6.226;2023-09-08T14:40:57;5.10;;;4.18;;
76021;SDS011;64718;52.124;6.226;2023-09-08T14:43:25;4.53;;;3.90;;
76021;SDS011;64718;52.124;6.226;2023-09-08T14:45:52;4.70;;;4.15;;
76021;SDS011;64718;52.124;6.226;2023-09-08T14:48:19;4.38;;;3.97;;
76021;SDS011;64718;52.124;6.226;2023-09-08T14:50:47;5.82;;;4.68;;
76021;SDS011;64718;52.124;6.226;2023-09-08T14:53:14;4.13;;;3.70;;
76021;SDS011;64718;52.124;6.226;2023-09-08T14:55:40;4.95;;;4.55;;
76021;SDS011;64718;52.124;6.226;2023-09-08T14:58:09;4.85;;;3.83;;
76021;SDS011;64718;52.124;6.226;2023-09-08T15:00:36;6.53;;;3.75;;
76021;SDS011;64718;52.124;6.226;2023-09-08T15:03:03;5.00;;;4.20;;
76021;SDS011;64718;52.124;6.226;2023-09-08T15:05:30;5.80;;;4.63;;
76021;SDS011;64718;52.124;6.226;2023-09-08T15:07:58;6.18;;;4.10;;
76021;SDS011;64718;52.124;6.226;2023-09-08T15:10:25;5.38;;;4.15;;